createdAt,value
2022-12-14T00:03:18.576Z,95.20
2022-12-14T00:07:21.716Z,95.20
2022-12-14T00:11:25.214Z,95.20
2022-12-14T00:15:28.175Z,95.20
2022-12-14T00:19:32.419Z,95.30
2022-12-14T00:23:38.872Z,95.40
2022-12-14T00:27:44.475Z,95.40
2022-12-14T00:31:48.652Z,95.40
2022-12-14T00:35:53.150Z,95.60
2022-12-14T00:39:56.120Z,95.60
2022-12-14T00:43:59.042Z,95.50
2022-12-14T00:48:02.256Z,95.50
2022-12-14T00:52:06.585Z,95.40
2022-12-14T00:56:10.026Z,95.40
2022-12-14T01:00:13.905Z,95.30
2022-12-14T01:04:22.204Z,95.10
2022-12-14T01:08:35.058Z,95.10
2022-12-14T01:12:37.915Z,95.20
2022-12-14T01:16:41.051Z,95.30
2022-12-14T01:20:43.967Z,95.40
2022-12-14T01:24:48.460Z,95.50
2022-12-14T01:28:53.493Z,95.60
2022-12-14T01:32:56.338Z,95.70
2022-12-14T01:36:59.226Z,95.80
2022-12-14T01:41:04.325Z,95.90
2022-12-14T01:45:17.492Z,95.90
2022-12-14T01:49:24.513Z,95.90
2022-12-14T01:53:27.761Z,95.90
2022-12-14T01:57:38.185Z,95.90
2022-12-14T02:01:41.414Z,95.70
2022-12-14T02:05:48.780Z,95.70
2022-12-14T02:09:52.643Z,95.80
2022-12-14T02:13:57.541Z,95.70
2022-12-14T02:18:02.855Z,95.70
2022-12-14T02:22:22.417Z,95.80
2022-12-14T02:26:55.953Z,95.90
2022-12-14T02:31:08.665Z,95.90
2022-12-14T02:35:19.805Z,96.00
2022-12-14T02:39:31.932Z,96.00
2022-12-14T02:43:41.055Z,96.10
2022-12-14T02:47:54.456Z,96.00
2022-12-14T02:52:04.461Z,95.90
2022-12-14T02:56:10.960Z,95.80
2022-12-14T03:00:14.611Z,95.60
2022-12-14T03:04:19.026Z,95.40
2022-12-14T03:08:24.032Z,95.20
2022-12-14T03:12:27.071Z,95.10
2022-12-14T03:16:32.160Z,95.20
2022-12-14T03:20:38.530Z,95.50
2022-12-14T03:24:44.533Z,95.10
2022-12-14T03:28:51.451Z,95.00
2022-12-14T03:32:58.082Z,95.20
2022-12-14T03:37:09.155Z,95.10
2022-12-14T03:41:20.188Z,95.30
2022-12-14T03:45:30.706Z,95.10
2022-12-14T03:49:47.356Z,95.00
2022-12-14T03:54:00.871Z,94.90
2022-12-14T03:58:18.974Z,95.10
2022-12-14T04:02:27.663Z,95.10
2022-12-14T04:06:39.273Z,95.60
2022-12-14T04:11:04.912Z,95.10
2022-12-14T04:15:30.521Z,95.20
2022-12-14T04:19:39.024Z,95.20
2022-12-14T04:24:03.491Z,95.20
2022-12-14T04:28:33.032Z,95.40
2022-12-14T04:32:41.481Z,95.30
2022-12-14T04:36:48.313Z,95.20
2022-12-14T04:40:54.520Z,95.00
2022-12-14T04:45:05.777Z,94.90
2022-12-14T04:49:17.279Z,94.80
2022-12-14T04:53:26.937Z,94.80
2022-12-14T04:57:36.709Z,94.70
2022-12-14T05:01:49.506Z,94.80
2022-12-14T05:06:00.262Z,95.00
2022-12-14T05:10:07.203Z,95.20
2022-12-14T05:14:13.829Z,95.30
2022-12-14T05:18:18.266Z,95.40
2022-12-14T05:22:21.655Z,95.40
2022-12-14T05:26:24.474Z,95.40
2022-12-14T05:30:27.472Z,95.40
2022-12-14T05:34:31.913Z,95.30
2022-12-14T05:38:34.736Z,95.40
2022-12-14T05:42:44.169Z,95.50
2022-12-14T05:46:48.441Z,95.70
2022-12-14T05:50:52.939Z,95.80
2022-12-14T05:55:02.344Z,95.80
2022-12-14T05:59:06.931Z,95.80
2022-12-14T06:03:09.895Z,95.60
2022-12-14T06:07:14.112Z,95.70
2022-12-14T06:11:18.774Z,95.60
2022-12-14T06:15:21.606Z,95.60
2022-12-14T06:19:24.498Z,95.60
2022-12-14T06:23:29.109Z,95.60
2022-12-14T06:27:32.523Z,95.70
2022-12-14T06:31:35.638Z,95.70
2022-12-14T06:35:38.471Z,95.70
2022-12-14T06:39:42.651Z,95.50
2022-12-14T06:43:49.279Z,95.50
2022-12-14T06:47:52.681Z,95.50
2022-12-14T06:51:55.662Z,95.40
2022-12-14T06:56:08.198Z,95.20
2022-12-14T07:00:13.167Z,95.10
2022-12-14T07:04:17.563Z,95.20
2022-12-14T07:08:21.409Z,95.20
2022-12-14T07:12:25.781Z,95.40
2022-12-14T07:16:30.410Z,95.40
2022-12-14T07:20:33.300Z,95.40
2022-12-14T07:24:36.176Z,95.30
2022-12-14T07:28:41.072Z,95.40
2022-12-14T07:32:43.894Z,95.60
2022-12-14T07:36:49.610Z,95.60
2022-12-14T07:40:52.492Z,95.60
2022-12-14T07:44:56.760Z,95.70
2022-12-14T07:49:00.751Z,95.80
2022-12-14T07:53:03.639Z,95.80
2022-12-14T07:57:06.486Z,95.80
2022-12-14T08:01:12.770Z,95.80
2022-12-14T08:05:16.381Z,95.50
2022-12-14T08:09:20.168Z,95.40
2022-12-14T08:13:23.130Z,95.20
2022-12-14T08:17:27.379Z,95.00
2022-12-14T08:21:30.751Z,94.50
2022-12-14T08:25:33.602Z,94.40
2022-12-14T08:29:36.451Z,94.20
2022-12-14T08:33:41.626Z,94.20
2022-12-14T08:37:47.645Z,94.30
2022-12-14T08:41:50.693Z,94.20
2022-12-14T08:45:55.740Z,94.10
2022-12-14T08:50:00.184Z,94.10
2022-12-14T08:54:03.014Z,94.10
2022-12-14T08:58:05.984Z,94.10
2022-12-14T09:02:10.263Z,93.90
2022-12-14T09:06:18.103Z,93.80
2022-12-14T09:10:21.071Z,93.60
2022-12-14T09:14:23.928Z,93.60
2022-12-14T09:18:27.437Z,93.40
2022-12-14T09:22:31.965Z,93.20
2022-12-14T09:26:34.895Z,93.40
2022-12-14T09:30:37.827Z,93.60
2022-12-14T09:34:40.705Z,93.40
2022-12-14T09:38:51.018Z,93.30
2022-12-14T09:43:01.235Z,93.10
2022-12-14T09:47:11.863Z,93.00
2022-12-14T09:51:16.874Z,92.80
2022-12-14T09:55:26.162Z,92.50
2022-12-14T09:59:31.901Z,92.50
2022-12-14T10:03:52.919Z,92.10
2022-12-14T10:08:04.937Z,91.80
2022-12-14T10:12:23.586Z,91.60
2022-12-14T10:16:32.107Z,91.40
2022-12-14T10:20:41.762Z,91.50
2022-12-14T10:24:49.227Z,91.30
2022-12-14T10:29:01.421Z,91.40
2022-12-14T10:33:13.583Z,91.30
2022-12-14T10:37:27.739Z,91.40
2022-12-14T10:41:39.484Z,91.10
2022-12-14T10:45:51.623Z,91.50
2022-12-14T10:49:58.665Z,91.30
2022-12-14T10:54:18.255Z,91.10
2022-12-14T10:58:21.087Z,90.90
2022-12-14T11:02:28.948Z,90.50
2022-12-14T11:06:32.259Z,90.70
2022-12-14T11:10:39.163Z,90.50
2022-12-14T11:14:54.648Z,90.70
2022-12-14T11:19:01.866Z,90.70
2022-12-14T11:23:09.472Z,90.40
2022-12-14T11:27:13.179Z,90.60
2022-12-14T11:31:23.182Z,90.40
2022-12-14T11:35:27.602Z,90.10
2022-12-14T11:39:30.906Z,89.70
2022-12-14T11:43:35.668Z,89.70
2022-12-14T11:47:38.590Z,89.40
2022-12-14T11:52:01.140Z,89.30
2022-12-14T11:56:07.332Z,89.10
2022-12-14T12:00:24.538Z,89.00
2022-12-14T12:04:27.471Z,89.00
2022-12-14T12:08:34.267Z,88.30
2022-12-14T12:12:37.989Z,88.50
2022-12-14T12:16:44.484Z,88.70
2022-12-14T12:20:53.712Z,88.50
2022-12-14T12:29:33.692Z,87.30
2022-12-14T12:33:42.280Z,86.10
2022-12-14T12:37:49.752Z,87.20
2022-12-14T12:42:05.262Z,86.00
2022-12-14T12:46:15.476Z,86.30
2022-12-14T12:50:20.671Z,86.50
2022-12-14T12:54:27.974Z,87.00
2022-12-14T12:58:34.757Z,87.20
2022-12-14T13:02:43.280Z,87.80
2022-12-14T13:06:51.900Z,88.10
2022-12-14T13:15:24.998Z,88.00
2022-12-14T13:19:50.675Z,88.50
2022-12-14T13:23:54.478Z,88.00
2022-12-14T13:28:17.176Z,88.70
2022-12-14T13:32:37.423Z,88.40
2022-12-14T13:37:10.971Z,89.10
2022-12-14T13:41:35.042Z,89.40
2022-12-14T13:45:41.227Z,89.60
2022-12-14T13:50:33.753Z,89.20
2022-12-14T13:54:23.453Z,89.40
2022-12-14T13:58:35.033Z,89.00
2022-12-14T14:02:40.459Z,89.30
2022-12-14T14:06:46.032Z,89.30
2022-12-14T14:10:54.120Z,89.70
2022-12-14T14:15:11.111Z,89.80
2022-12-14T14:19:22.961Z,89.60
2022-12-14T14:23:39.408Z,89.50
2022-12-14T14:27:50.196Z,89.60
2022-12-14T14:31:59.485Z,89.60
2022-12-14T14:36:09.529Z,90.00
2022-12-14T14:40:50.993Z,90.00
2022-12-14T14:44:53.102Z,90.20
2022-12-14T14:48:57.140Z,90.40
2022-12-14T14:53:10.919Z,90.70
2022-12-14T14:57:35.273Z,90.90
2022-12-14T15:01:38.563Z,91.10
2022-12-14T15:05:43.352Z,91.30
2022-12-14T15:09:51.617Z,91.40
2022-12-14T15:14:00.531Z,91.60
2022-12-14T15:18:17.713Z,91.70
2022-12-14T15:22:23.586Z,92.00
2022-12-14T15:26:28.876Z,92.20
2022-12-14T15:30:33.512Z,92.40
2022-12-14T15:34:36.448Z,92.70
2022-12-14T15:38:39.310Z,93.10
2022-12-14T15:42:47.857Z,93.30
2022-12-14T15:46:56.130Z,93.30
2022-12-14T15:51:03.055Z,93.80
2022-12-14T15:55:07.966Z,93.80
2022-12-14T15:59:18.365Z,93.80
2022-12-14T16:03:29.823Z,94.00
2022-12-14T16:07:38.425Z,94.20
2022-12-14T16:11:44.621Z,94.30
2022-12-14T16:15:48.186Z,94.40
2022-12-14T16:20:00.482Z,94.50
2022-12-14T16:24:21.935Z,94.60
2022-12-14T16:28:28.922Z,94.70
2022-12-14T16:32:31.853Z,94.90
2022-12-14T16:36:37.900Z,95.00
2022-12-14T16:40:43.260Z,95.30
2022-12-14T16:44:47.025Z,95.40
2022-12-14T16:49:30.390Z,95.50
2022-12-14T16:53:34.977Z,95.70
2022-12-14T16:57:39.972Z,96.20
2022-12-14T17:01:45.622Z,96.00
2022-12-14T17:05:54.497Z,96.00
2022-12-14T17:09:58.908Z,95.90
2022-12-14T17:14:01.805Z,96.20
2022-12-14T17:18:06.088Z,96.20
2022-12-14T17:22:17.407Z,96.20
2022-12-14T17:26:24.416Z,96.40
2022-12-14T17:30:27.890Z,96.50
2022-12-14T17:34:31.349Z,96.50
2022-12-14T17:38:34.323Z,96.50
2022-12-14T17:42:40.244Z,96.50
2022-12-14T17:46:44.042Z,96.50
2022-12-14T17:50:49.658Z,96.50
2022-12-14T17:54:52.657Z,96.80
2022-12-14T17:58:56.870Z,96.70
2022-12-14T18:02:59.957Z,96.80
2022-12-14T18:07:04.057Z,97.00
2022-12-14T18:11:13.386Z,96.90
2022-12-14T18:15:21.302Z,97.00
2022-12-14T18:19:24.956Z,97.40
2022-12-14T18:23:28.925Z,97.20
2022-12-14T18:27:32.325Z,97.20
2022-12-14T18:31:38.713Z,97.40
2022-12-14T18:35:41.747Z,97.40
2022-12-14T18:39:44.643Z,97.30
2022-12-14T18:43:54.161Z,97.20
2022-12-14T18:47:59.061Z,97.20
2022-12-14T18:52:01.973Z,97.20
2022-12-14T18:56:09.446Z,97.30
2022-12-14T19:00:14.799Z,97.30
2022-12-14T19:04:18.974Z,97.40
2022-12-14T19:08:21.837Z,97.60
2022-12-14T19:12:24.723Z,97.70
2022-12-14T19:16:28.265Z,97.70
2022-12-14T19:20:32.574Z,97.50
2022-12-14T19:24:35.822Z,97.30
2022-12-14T19:28:38.861Z,97.50
2022-12-14T19:32:41.774Z,97.50
2022-12-14T19:36:46.134Z,97.70
2022-12-14T19:41:00.064Z,97.80
2022-12-14T19:45:03.103Z,97.90
2022-12-14T19:49:06.684Z,98.10
2022-12-14T19:53:10.997Z,98.20
2022-12-14T19:57:14.018Z,98.10
2022-12-14T20:01:18.675Z,98.30
2022-12-14T20:05:23.650Z,98.30
2022-12-14T20:09:27.787Z,98.30
2022-12-14T20:13:31.358Z,98.30
2022-12-14T20:17:34.494Z,98.30
2022-12-14T20:21:37.425Z,98.40
2022-12-14T20:25:42.266Z,98.40
2022-12-14T20:29:45.153Z,98.40
2022-12-14T20:33:48.196Z,98.40
2022-12-14T20:37:53.963Z,98.40
2022-12-14T20:41:58.219Z,98.60
2022-12-14T20:46:01.687Z,98.30
2022-12-14T20:50:05.516Z,98.40
2022-12-14T20:54:11.728Z,98.50
2022-12-14T20:58:15.895Z,98.40
2022-12-14T21:02:20.587Z,98.30
2022-12-14T21:06:24.318Z,98.40
2022-12-14T21:10:27.152Z,98.40
2022-12-14T21:14:33.092Z,98.40
2022-12-14T21:18:36.059Z,98.20
2022-12-14T21:22:39.468Z,98.40
2022-12-14T21:26:42.515Z,98.40
2022-12-14T21:30:53.061Z,98.40
2022-12-14T21:34:56.104Z,98.30
2022-12-14T21:38:59.008Z,98.30
2022-12-14T21:43:02.972Z,98.30
2022-12-14T21:47:10.057Z,98.10
2022-12-14T21:51:18.182Z,98.00
2022-12-14T21:55:21.044Z,98.00
2022-12-14T21:59:26.713Z,98.00
2022-12-14T22:03:32.631Z,98.00
2022-12-14T22:07:35.823Z,97.90
2022-12-14T22:11:38.709Z,97.80
2022-12-14T22:15:41.604Z,97.80
2022-12-14T22:19:46.061Z,97.90
2022-12-14T22:23:49.019Z,97.70
2022-12-14T22:27:51.905Z,97.70
2022-12-14T22:31:54.771Z,97.70
2022-12-14T22:35:59.621Z,97.90
2022-12-14T22:40:02.857Z,97.90
2022-12-14T22:44:07.085Z,97.80
2022-12-14T22:48:10.206Z,97.90
2022-12-14T22:52:16.502Z,97.80
2022-12-14T22:56:27.018Z,97.80
2022-12-14T23:00:29.888Z,97.90
2022-12-14T23:04:33.023Z,98.20
2022-12-14T23:08:37.188Z,98.10
2022-12-14T23:12:57.628Z,98.00
2022-12-14T23:17:18.789Z,98.00
2022-12-14T23:21:39.467Z,98.10
2022-12-14T23:26:01.305Z,98.40
2022-12-14T23:30:22.037Z,98.50
2022-12-14T23:34:42.544Z,98.60
2022-12-14T23:39:03.192Z,98.50
2022-12-14T23:43:29.395Z,98.40
2022-12-14T23:47:49.797Z,98.90
2022-12-14T23:52:10.019Z,98.60
2022-12-14T23:56:30.356Z,98.50
